Time;durP1;ratioP1;P1;durP2;ratioP2;P2;SDS_P1;SDS_P2;PMS_P1;PMS_P2;Temp;Humidity;BMP_temperature;BMP_pressure;BME280_temperature;BME280_humidity;BME280_pressure;Samples;Min_cycle;Max_cycle;Signal;HPM_P1;HPM_P2
2022/11/24 00:01:57;;;;;;;86.27;38.00;;;;;;;;;;766360;180;919505;-61
2022/11/24 00:04:22;;;;;;;97.40;36.10;;;;;;;;;;748944;186;918405;-61
2022/11/24 00:06:48;;;;;;;99.83;40.90;;;;;;;;;;759479;182;847363;-62
2022/11/24 00:09:14;;;;;;;78.37;35.80;;;;;;;;;;769943;181;918841;-60
2022/11/24 00:11:40;;;;;;;90.83;39.10;;;;;;;;;;763851;181;919428;-61
2022/11/24 00:14:06;;;;;;;88.07;38.13;;;;;;;;;;764591;182;919524;-61
2022/11/24 00:16:32;;;;;;;94.43;39.30;;;;;;;;;;770464;181;917247;-61
2022/11/24 00:18:57;;;;;;;90.20;37.93;;;;;;;;;;769642;181;919396;-60
2022/11/24 00:21:23;;;;;;;89.70;33.80;;;;;;;;;;766938;181;918938;-61
2022/11/24 00:23:49;;;;;;;85.63;34.67;;;;;;;;;;769786;182;919347;-62
2022/11/24 00:26:15;;;;;;;98.03;39.13;;;;;;;;;;764550;181;921361;-68
2022/11/24 00:28:41;;;;;;;98.35;36.80;;;;;;;;;;766689;182;918664;-64
2022/11/24 00:31:15;;;;;;;94.50;41.60;;;;;;;;;;760610;184;918443;-63
2022/11/24 00:33:41;;;;;;;96.63;40.43;;;;;;;;;;772215;182;919043;-64
2022/11/24 00:36:07;;;;;;;95.57;41.93;;;;;;;;;;770632;180;919264;-60
2022/11/24 00:38:32;;;;;;;87.97;39.67;;;;;;;;;;772972;180;918769;-61
2022/11/24 00:40:58;;;;;;;95.70;41.77;;;;;;;;;;779168;179;919275;-61
2022/11/24 00:43:24;;;;;;;107.65;42.95;;;;;;;;;;774189;179;919707;-61
2022/11/24 00:45:50;;;;;;;89.13;40.00;;;;;;;;;;775655;179;919121;-65
2022/11/24 00:48:16;;;;;;;127.37;50.70;;;;;;;;;;775141;179;919274;-62
2022/11/24 00:50:42;;;;;;;134.83;54.27;;;;;;;;;;780899;180;916454;-64
2022/11/24 00:53:08;;;;;;;83.20;38.17;;;;;;;;;;772522;180;917455;-64
2022/11/24 00:55:33;;;;;;;89.23;39.20;;;;;;;;;;753509;184;938825;-65
2022/11/24 00:57:59;;;;;;;82.97;36.47;;;;;;;;;;765900;180;818252;-61
2022/11/24 01:00:25;;;;;;;95.27;41.93;;;;;;;;;;764780;180;919798;-65
2022/11/24 01:02:51;;;;;;;98.93;38.17;;;;;;;;;;763134;181;921417;-65
2022/11/24 01:05:17;;;;;;;97.03;39.13;;;;;;;;;;773980;182;821426;-60
2022/11/24 01:07:43;;;;;;;94.03;40.63;;;;;;;;;;770825;180;917935;-62
2022/11/24 01:10:09;;;;;;;129.30;49.90;;;;;;;;;;768929;181;918983;-61
2022/11/24 01:12:34;;;;;;;79.73;36.83;;;;;;;;;;767553;180;919496;-65
2022/11/24 01:15:00;;;;;;;91.00;38.67;;;;;;;;;;767011;183;918527;-61
2022/11/24 01:17:26;;;;;;;111.10;46.00;;;;;;;;;;755692;183;818722;-61
2022/11/24 01:19:52;;;;;;;113.80;45.50;;;;;;;;;;764550;182;892309;-64
2022/11/24 01:22:18;;;;;;;92.37;39.80;;;;;;;;;;779137;181;816219;-64
2022/11/24 01:24:44;;;;;;;83.20;40.60;;;;;;;;;;772942;180;629468;-64
2022/11/24 01:27:10;;;;;;;97.33;38.97;;;;;;;;;;756306;185;918639;-60
2022/11/24 01:29:36;;;;;;;86.37;36.67;;;;;;;;;;767403;182;634374;-61
2022/11/24 01:32:02;;;;;;;82.77;37.10;;;;;;;;;;766886;181;636115;-62
2022/11/24 01:34:29;;;;;;;87.77;36.20;;;;;;;;;;766284;182;918544;-61
2022/11/24 01:36:54;;;;;;;88.23;40.00;;;;;;;;;;766703;182;917818;-61
2022/11/24 01:39:20;;;;;;;79.73;33.67;;;;;;;;;;768914;182;899639;-61
2022/11/24 01:41:46;;;;;;;85.03;35.03;;;;;;;;;;764505;181;918618;-64
2022/11/24 01:44:18;;;;;;;82.10;37.05;;;;;;;;;;762769;181;922589;-64
2022/11/24 01:46:44;;;;;;;71.87;30.17;;;;;;;;;;769342;179;918235;-61
2022/11/24 01:49:10;;;;;;;73.18;33.25;;;;;;;;;;770416;180;918914;-60
2022/11/24 01:51:36;;;;;;;78.93;34.53;;;;;;;;;;773672;180;919291;-61
2022/11/24 01:54:02;;;;;;;76.40;32.37;;;;;;;;;;768669;180;918724;-64
2022/11/24 01:56:28;;;;;;;71.20;29.80;;;;;;;;;;766536;180;919088;-60
2022/11/24 01:58:54;;;;;;;81.67;35.47;;;;;;;;;;760841;183;919820;-64
2022/11/24 02:01:20;;;;;;;84.03;34.40;;;;;;;;;;764709;181;919095;-62
2022/11/24 02:03:45;;;;;;;91.83;36.37;;;;;;;;;;776748;180;906941;-65
2022/11/24 02:06:11;;;;;;;83.10;35.73;;;;;;;;;;770908;180;920500;-64
2022/11/24 02:08:37;;;;;;;84.80;35.07;;;;;;;;;;768142;182;919770;-61
2022/11/24 02:11:03;;;;;;;82.00;34.70;;;;;;;;;;772330;180;919440;-64
2022/11/24 02:13:29;;;;;;;72.33;31.40;;;;;;;;;;764259;181;919969;-64
2022/11/24 02:15:55;;;;;;;75.70;30.65;;;;;;;;;;771887;180;919063;-62
2022/11/24 02:18:21;;;;;;;69.87;29.15;;;;;;;;;;776632;180;918751;-64
2022/11/24 02:20:47;;;;;;;93.80;37.80;;;;;;;;;;766797;182;918776;-64
2022/11/24 02:23:14;;;;;;;76.50;34.30;;;;;;;;;;771172;180;919143;-65
2022/11/24 02:25:42;;;;;;;78.73;36.80;;;;;;;;;;771312;181;1021408;-62
2022/11/24 02:28:08;;;;;;;72.70;33.27;;;;;;;;;;770147;181;916568;-62
2022/11/24 02:30:34;;;;;;;91.97;33.80;;;;;;;;;;759030;184;915573;-61
2022/11/24 02:32:59;;;;;;;82.33;34.50;;;;;;;;;;765967;180;917060;-61
2022/11/24 02:35:25;;;;;;;85.43;34.10;;;;;;;;;;771780;180;919231;-65
2022/11/24 02:37:51;;;;;;;85.50;36.33;;;;;;;;;;768966;180;912205;-60
2022/11/24 02:40:18;;;;;;;86.85;33.05;;;;;;;;;;768876;180;919185;-61
2022/11/24 02:42:44;;;;;;;67.73;35.10;;;;;;;;;;755929;184;919252;-61
2022/11/24 02:45:10;;;;;;;79.47;36.87;;;;;;;;;;753680;188;919240;-64
2022/11/24 02:47:35;;;;;;;71.13;32.57;;;;;;;;;;750060;180;918793;-64
2022/11/24 02:50:01;;;;;;;73.93;34.87;;;;;;;;;;761648;184;904508;-65
2022/11/24 02:52:27;;;;;;;82.40;32.77;;;;;;;;;;773899;180;816138;-61
2022/11/24 02:54:53;;;;;;;74.17;33.73;;;;;;;;;;775260;180;922501;-61
2022/11/24 02:57:19;;;;;;;75.97;35.13;;;;;;;;;;778618;180;637386;-62
2022/11/24 02:59:45;;;;;;;79.13;33.73;;;;;;;;;;780875;180;737090;-61
2022/11/24 03:02:10;;;;;;;80.43;33.63;;;;;;;;;;773779;180;918684;-62
2022/11/24 03:04:36;;;;;;;80.90;34.87;;;;;;;;;;773908;181;815871;-61
2022/11/24 03:07:02;;;;;;;84.27;34.33;;;;;;;;;;775596;180;813146;-62
2022/11/24 03:09:28;;;;;;;90.17;36.07;;;;;;;;;;782041;179;916971;-64
2022/11/24 03:11:54;;;;;;;70.50;31.60;;;;;;;;;;758651;180;919286;-64
2022/11/24 03:14:19;;;;;;;76.00;32.90;;;;;;;;;;761419;184;914413;-61
2022/11/24 03:16:45;;;;;;;76.00;32.67;;;;;;;;;;776357;180;814000;-61
2022/11/24 03:19:11;;;;;;;80.97;30.50;;;;;;;;;;775765;180;918150;-62
2022/11/24 03:21:37;;;;;;;75.77;29.40;;;;;;;;;;775466;180;915167;-64
2022/11/24 03:24:03;;;;;;;92.50;36.20;;;;;;;;;;781472;180;817527;-65
2022/11/24 03:26:29;;;;;;;70.33;32.23;;;;;;;;;;770091;180;913147;-64
2022/11/24 03:28:56;;;;;;;84.17;33.57;;;;;;;;;;764332;183;834845;-64
2022/11/24 03:31:21;;;;;;;82.20;35.83;;;;;;;;;;766248;181;882685;-64
2022/11/24 03:33:47;;;;;;;78.87;33.53;;;;;;;;;;764083;184;940499;-64
2022/11/24 03:36:13;;;;;;;82.77;34.80;;;;;;;;;;769571;181;920343;-61
2022/11/24 03:38:39;;;;;;;77.57;32.83;;;;;;;;;;770421;180;918772;-64
2022/11/24 03:41:05;;;;;;;71.27;32.07;;;;;;;;;;772990;180;916138;-64
2022/11/24 03:43:31;;;;;;;95.03;36.37;;;;;;;;;;765895;181;919410;-61
2022/11/24 03:45:57;;;;;;;91.90;35.70;;;;;;;;;;772007;180;919525;-61
2022/11/24 03:48:23;;;;;;;86.03;35.40;;;;;;;;;;769460;181;918617;-64
2022/11/24 03:50:55;;;;;;;81.23;31.20;;;;;;;;;;765823;181;919264;-60
2022/11/24 03:53:20;;;;;;;73.37;32.93;;;;;;;;;;766378;181;919001;-61
2022/11/24 03:55:46;;;;;;;105.77;36.63;;;;;;;;;;768983;181;919138;-66
2022/11/24 03:58:12;;;;;;;105.73;36.50;;;;;;;;;;771734;181;921188;-60
2022/11/24 04:00:38;;;;;;;81.23;33.43;;;;;;;;;;764405;182;920714;-61
2022/11/24 04:03:03;;;;;;;101.53;35.97;;;;;;;;;;768827;180;819066;-62
2022/11/24 04:05:30;;;;;;;93.33;36.63;;;;;;;;;;775731;181;817457;-61
2022/11/24 04:07:56;;;;;;;103.10;37.27;;;;;;;;;;774089;179;855854;-64
2022/11/24 04:10:21;;;;;;;115.37;36.70;;;;;;;;;;771378;179;819218;-62
2022/11/24 04:12:47;;;;;;;90.30;35.40;;;;;;;;;;769831;180;819177;-64
2022/11/24 04:15:14;;;;;;;107.97;38.57;;;;;;;;;;765997;180;923522;-64
2022/11/24 04:17:39;;;;;;;111.30;36.60;;;;;;;;;;767048;180;919562;-62
2022/11/24 04:20:06;;;;;;;118.80;35.97;;;;;;;;;;770864;180;921693;-65
2022/11/24 04:22:32;;;;;;;103.83;38.47;;;;;;;;;;775563;179;915643;-60
2022/11/24 04:24:58;;;;;;;86.93;33.93;;;;;;;;;;771145;180;913630;-61
2022/11/24 04:27:23;;;;;;;113.47;40.23;;;;;;;;;;770371;180;926307;-60
2022/11/24 04:29:50;;;;;;;89.00;31.63;;;;;;;;;;773481;180;914571;-65
2022/11/24 04:32:16;;;;;;;105.10;37.73;;;;;;;;;;766771;180;914646;-62
2022/11/24 04:34:41;;;;;;;111.23;34.80;;;;;;;;;;767817;179;1021553;-64
2022/11/24 04:37:07;;;;;;;126.20;39.87;;;;;;;;;;769654;180;915615;-61
2022/11/24 04:39:33;;;;;;;123.47;44.57;;;;;;;;;;769344;180;919402;-66
2022/11/24 04:41:59;;;;;;;388.00;278.10;;;;;;;;;;767145;180;922991;-64
2022/11/24 04:44:25;;;;;;;132.57;55.73;;;;;;;;;;763092;180;1017522;-62
2022/11/24 04:46:51;;;;;;;423.20;222.07;;;;;;;;;;765079;180;819200;-61
2022/11/24 04:49:17;;;;;;;214.10;110.27;;;;;;;;;;758337;183;908538;-61
2022/11/24 04:51:42;;;;;;;126.95;46.17;;;;;;;;;;766010;180;918009;-64
2022/11/24 04:54:08;;;;;;;108.83;37.10;;;;;;;;;;775973;180;917514;-66
2022/11/24 04:56:34;;;;;;;111.30;39.67;;;;;;;;;;766645;180;918578;-64
2022/11/24 04:59:00;;;;;;;107.67;38.07;;;;;;;;;;770005;181;905606;-60
2022/11/24 05:01:26;;;;;;;121.90;39.70;;;;;;;;;;773653;180;918883;-61
2022/11/24 05:03:53;;;;;;;118.43;38.10;;;;;;;;;;768864;180;816758;-64
2022/11/24 05:06:18;;;;;;;135.73;55.93;;;;;;;;;;769680;180;919073;-61
2022/11/24 05:08:44;;;;;;;125.77;43.33;;;;;;;;;;773176;180;745321;-65
2022/11/24 05:11:10;;;;;;;162.87;68.07;;;;;;;;;;770201;183;642911;-62
2022/11/24 05:13:36;;;;;;;167.10;75.23;;;;;;;;;;758668;181;903239;-64
2022/11/24 05:16:02;;;;;;;191.97;73.80;;;;;;;;;;766351;180;917329;-62
2022/11/24 05:18:28;;;;;;;116.80;41.37;;;;;;;;;;780128;179;638169;-65
2022/11/24 05:20:54;;;;;;;135.73;48.40;;;;;;;;;;769006;179;816274;-65
2022/11/24 05:23:19;;;;;;;170.03;64.80;;;;;;;;;;775215;180;689014;-62
2022/11/24 05:25:45;;;;;;;127.60;45.33;;;;;;;;;;778939;179;816699;-61
2022/11/24 05:28:11;;;;;;;101.97;38.70;;;;;;;;;;772894;179;815745;-62
2022/11/24 05:30:37;;;;;;;139.90;43.23;;;;;;;;;;764492;179;855887;-62
2022/11/24 05:33:05;;;;;;;146.10;51.60;;;;;;;;;;765640;181;919819;-62
2022/11/24 05:35:30;;;;;;;125.07;39.57;;;;;;;;;;775918;180;908475;-64
2022/11/24 05:37:56;;;;;;;127.63;42.50;;;;;;;;;;770744;180;908214;-65
2022/11/24 05:40:22;;;;;;;123.13;43.30;;;;;;;;;;770985;180;816689;-62
2022/11/24 05:42:48;;;;;;;123.10;35.37;;;;;;;;;;771849;180;914858;-66
2022/11/24 05:45:14;;;;;;;120.13;40.47;;;;;;;;;;766526;181;914147;-64
2022/11/24 05:47:40;;;;;;;130.43;42.73;;;;;;;;;;772751;180;811033;-65
2022/11/24 05:50:06;;;;;;;139.27;40.57;;;;;;;;;;778833;180;615332;-66
2022/11/24 05:52:32;;;;;;;117.10;41.77;;;;;;;;;;776890;180;631125;-61
2022/11/24 05:54:58;;;;;;;130.70;41.47;;;;;;;;;;772025;179;893210;-63
2022/11/24 05:57:23;;;;;;;132.93;37.03;;;;;;;;;;769841;180;920078;-64
2022/11/24 05:59:49;;;;;;;132.80;39.37;;;;;;;;;;769711;183;621958;-60
2022/11/24 06:02:15;;;;;;;128.70;38.47;;;;;;;;;;770213;180;920406;-64
2022/11/24 06:04:41;;;;;;;128.00;39.90;;;;;;;;;;773210;180;628272;-62
2022/11/24 06:07:07;;;;;;;120.20;38.00;;;;;;;;;;763948;180;769838;-66
2022/11/24 06:09:33;;;;;;;124.30;38.90;;;;;;;;;;758956;181;920119;-62
2022/11/24 06:11:58;;;;;;;137.40;40.43;;;;;;;;;;767991;181;917137;-61
2022/11/24 06:14:24;;;;;;;114.37;42.47;;;;;;;;;;772741;181;811752;-64
2022/11/24 06:16:50;;;;;;;131.77;44.83;;;;;;;;;;766201;180;915673;-62
2022/11/24 06:19:16;;;;;;;147.00;42.10;;;;;;;;;;768128;181;1009580;-65
2022/11/24 06:21:42;;;;;;;116.80;39.93;;;;;;;;;;769637;182;918603;-64
2022/11/24 06:24:08;;;;;;;110.17;40.20;;;;;;;;;;760237;180;817526;-65
2022/11/24 06:26:34;;;;;;;130.77;40.17;;;;;;;;;;761522;181;919177;-62
2022/11/24 06:29:00;;;;;;;136.67;42.50;;;;;;;;;;766764;180;919204;-64
2022/11/24 06:31:25;;;;;;;139.33;41.87;;;;;;;;;;780778;179;620834;-62
2022/11/24 06:33:52;;;;;;;139.73;41.03;;;;;;;;;;756541;182;919675;-64
2022/11/24 06:36:17;;;;;;;134.63;42.77;;;;;;;;;;756370;183;919223;-65
2022/11/24 06:38:43;;;;;;;123.90;42.20;;;;;;;;;;771538;182;919341;-66
2022/11/24 06:41:09;;;;;;;120.63;42.10;;;;;;;;;;767247;180;918744;-68
2022/11/24 06:43:35;;;;;;;117.45;37.80;;;;;;;;;;768335;180;921128;-62
2022/11/24 06:46:00;;;;;;;144.27;44.30;;;;;;;;;;774759;180;922156;-61
2022/11/24 06:48:26;;;;;;;140.90;41.17;;;;;;;;;;765504;182;918920;-61
2022/11/24 06:50:52;;;;;;;126.30;37.97;;;;;;;;;;764820;180;919136;-64
2022/11/24 06:53:18;;;;;;;123.63;38.90;;;;;;;;;;762789;182;916680;-62
2022/11/24 06:55:44;;;;;;;112.10;37.60;;;;;;;;;;769584;183;918581;-65
2022/11/24 06:58:10;;;;;;;110.47;38.97;;;;;;;;;;759415;183;918896;-65
2022/11/24 07:00:35;;;;;;;113.53;39.33;;;;;;;;;;762844;183;915719;-66
2022/11/24 07:03:01;;;;;;;135.70;42.67;;;;;;;;;;775338;181;816836;-61
2022/11/24 07:05:27;;;;;;;125.05;42.25;;;;;;;;;;763956;181;1022043;-65
2022/11/24 07:07:53;;;;;;;142.73;44.40;;;;;;;;;;770547;180;920519;-65
2022/11/24 07:10:19;;;;;;;139.50;43.33;;;;;;;;;;775162;180;1019344;-62
2022/11/24 07:12:45;;;;;;;122.70;41.10;;;;;;;;;;767910;180;917839;-61
2022/11/24 07:15:11;;;;;;;118.45;39.38;;;;;;;;;;752176;185;918492;-60
2022/11/24 07:17:37;;;;;;;128.25;39.10;;;;;;;;;;764089;181;1020678;-62
2022/11/24 07:20:05;;;;;;;137.93;40.60;;;;;;;;;;770390;182;919091;-61
2022/11/24 07:22:31;;;;;;;137.20;38.93;;;;;;;;;;760014;180;918349;-61
2022/11/24 07:24:57;;;;;;;143.30;38.70;;;;;;;;;;757199;183;914704;-61
2022/11/24 07:27:23;;;;;;;117.45;42.15;;;;;;;;;;769758;181;901781;-66
2022/11/24 07:29:49;;;;;;;107.97;37.43;;;;;;;;;;771714;180;917784;-64
2022/11/24 07:32:15;;;;;;;132.40;45.17;;;;;;;;;;769830;180;918877;-61
2022/11/24 07:34:40;;;;;;;133.40;38.20;;;;;;;;;;771579;180;917727;-64
2022/11/24 07:37:06;;;;;;;127.07;38.87;;;;;;;;;;757130;183;925854;-65
2022/11/24 07:39:32;;;;;;;128.32;45.12;;;;;;;;;;761827;181;917306;-62
2022/11/24 07:41:59;;;;;;;124.57;42.07;;;;;;;;;;772534;179;920939;-61
2022/11/24 07:44:24;;;;;;;125.43;37.00;;;;;;;;;;769146;182;917383;-64
2022/11/24 07:46:50;;;;;;;130.33;43.10;;;;;;;;;;763317;180;999667;-60
2022/11/24 07:49:16;;;;;;;113.83;37.63;;;;;;;;;;771038;180;873054;-62
2022/11/24 07:51:41;;;;;;;133.27;42.13;;;;;;;;;;775489;180;1018972;-62
2022/11/24 07:54:07;;;;;;;115.63;38.20;;;;;;;;;;770181;180;921562;-63
2022/11/24 07:56:33;;;;;;;132.63;45.13;;;;;;;;;;771496;180;918415;-60
2022/11/24 07:58:59;;;;;;;116.23;40.83;;;;;;;;;;776621;180;917127;-64
2022/11/24 08:01:25;;;;;;;120.63;46.17;;;;;;;;;;765750;181;918388;-61
2022/11/24 08:03:51;;;;;;;194.57;65.53;;;;;;;;;;769170;181;919125;-64
2022/11/24 08:06:17;;;;;;;132.80;45.00;;;;;;;;;;776369;180;920098;-66
2022/11/24 08:08:42;;;;;;;116.00;40.23;;;;;;;;;;773709;180;918626;-65
2022/11/24 08:11:08;;;;;;;110.57;37.83;;;;;;;;;;767250;180;918875;-62
2022/11/24 08:13:34;;;;;;;112.87;39.73;;;;;;;;;;767584;181;818721;-66
2022/11/24 08:16:00;;;;;;;115.23;41.00;;;;;;;;;;779032;180;818977;-61
2022/11/24 08:18:26;;;;;;;107.03;40.83;;;;;;;;;;768740;180;921344;-62
2022/11/24 08:20:52;;;;;;;100.30;35.80;;;;;;;;;;774084;180;814597;-61
2022/11/24 08:23:17;;;;;;;98.60;39.00;;;;;;;;;;772015;180;818765;-60
2022/11/24 08:25:43;;;;;;;169.00;56.23;;;;;;;;;;766201;182;918885;-66
2022/11/24 08:28:09;;;;;;;136.30;48.23;;;;;;;;;;761354;181;918719;-62
2022/11/24 08:30:35;;;;;;;164.40;56.17;;;;;;;;;;774969;181;818933;-62
2022/11/24 08:33:01;;;;;;;112.87;40.53;;;;;;;;;;770687;181;918643;-65
2022/11/24 08:35:27;;;;;;;107.22;41.70;;;;;;;;;;765385;180;1050725;-64
2022/11/24 08:37:53;;;;;;;110.87;39.00;;;;;;;;;;769466;179;956190;-65
2022/11/24 08:40:18;;;;;;;108.03;42.20;;;;;;;;;;773904;181;618240;-62
2022/11/24 08:42:44;;;;;;;101.97;42.80;;;;;;;;;;772340;181;919349;-64
2022/11/24 08:45:10;;;;;;;118.30;40.77;;;;;;;;;;770127;181;919023;-62
2022/11/24 08:47:37;;;;;;;112.77;40.73;;;;;;;;;;765740;181;715639;-64
2022/11/24 08:50:04;;;;;;;119.27;47.57;;;;;;;;;;761006;182;920668;-60
2022/11/24 08:52:29;;;;;;;120.73;42.70;;;;;;;;;;770305;180;918596;-62
2022/11/24 08:54:55;;;;;;;102.50;41.47;;;;;;;;;;780273;179;820545;-62
2022/11/24 08:57:21;;;;;;;103.93;40.20;;;;;;;;;;768346;179;919723;-66
2022/11/24 08:59:46;;;;;;;114.07;39.73;;;;;;;;;;757719;180;883340;-62
2022/11/24 09:02:12;;;;;;;90.73;36.00;;;;;;;;;;759879;184;816400;-65
2022/11/24 09:04:38;;;;;;;91.50;34.70;;;;;;;;;;770762;181;817270;-64
2022/11/24 09:07:04;;;;;;;94.20;34.17;;;;;;;;;;757925;181;818326;-64
2022/11/24 09:09:30;;;;;;;87.77;34.30;;;;;;;;;;769698;181;817658;-64
2022/11/24 09:11:56;;;;;;;85.45;32.42;;;;;;;;;;778076;180;919164;-61
2022/11/24 09:14:21;;;;;;;107.43;36.10;;;;;;;;;;772309;179;915928;-66
2022/11/24 09:16:47;;;;;;;95.03;35.37;;;;;;;;;;765665;181;938243;-65
2022/11/24 09:19:13;;;;;;;85.78;36.78;;;;;;;;;;772080;181;919100;-62
2022/11/24 09:21:39;;;;;;;93.57;36.27;;;;;;;;;;766548;180;919375;-65
2022/11/24 09:24:06;;;;;;;87.05;34.38;;;;;;;;;;766841;181;918522;-64
2022/11/24 09:26:31;;;;;;;80.97;36.23;;;;;;;;;;769045;180;913085;-65
2022/11/24 09:28:57;;;;;;;98.70;37.80;;;;;;;;;;763239;179;920741;-64
2022/11/24 09:31:23;;;;;;;95.97;35.88;;;;;;;;;;766094;180;911669;-64
2022/11/24 09:33:48;;;;;;;91.00;34.67;;;;;;;;;;767442;180;821469;-65
2022/11/24 09:36:14;;;;;;;90.90;33.63;;;;;;;;;;774234;181;818798;-66
2022/11/24 09:38:40;;;;;;;90.10;34.60;;;;;;;;;;758244;180;914966;-61
2022/11/24 09:41:22;;;;;;;81.17;33.53;;;;;;;;;;764224;182;916063;-62
2022/11/24 09:44:03;;;;;;;85.80;33.17;;;;;;;;;;769608;180;916565;-64
2022/11/24 09:46:32;;;;;;;83.43;34.90;;;;;;;;;;764862;181;920841;-65
2022/11/24 09:48:59;;;;;;;87.37;35.77;;;;;;;;;;775715;181;813580;-65
2022/11/24 09:51:25;;;;;;;97.87;34.43;;;;;;;;;;765847;181;915926;-63
2022/11/24 09:53:50;;;;;;;85.17;37.13;;;;;;;;;;764887;182;915862;-62
2022/11/24 09:56:19;;;;;;;91.12;35.67;;;;;;;;;;771331;181;914422;-64
2022/11/24 09:58:47;;;;;;;77.20;32.50;;;;;;;;;;770883;180;895453;-66
2022/11/24 10:01:12;;;;;;;75.83;30.33;;;;;;;;;;767600;181;914648;-61
2022/11/24 10:03:38;;;;;;;71.20;31.37;;;;;;;;;;770928;180;917526;-65
2022/11/24 10:06:04;;;;;;;87.17;31.27;;;;;;;;;;777426;179;914880;-61
2022/11/24 10:08:35;;;;;;;79.97;33.67;;;;;;;;;;763405;180;919394;-61
2022/11/24 10:11:01;;;;;;;80.03;33.40;;;;;;;;;;755480;185;920999;-64
2022/11/24 10:13:45;;;;;;;79.33;32.27;;;;;;;;;;751812;186;915039;-62
2022/11/24 10:16:11;;;;;;;76.27;31.97;;;;;;;;;;753104;185;916599;-65
2022/11/24 10:18:39;;;;;;;74.30;30.20;;;;;;;;;;764446;181;916082;-61
2022/11/24 10:21:07;;;;;;;75.67;31.10;;;;;;;;;;765597;181;919545;-66
2022/11/24 10:23:35;;;;;;;73.50;28.77;;;;;;;;;;773568;180;919318;-65
2022/11/24 10:26:00;;;;;;;78.53;34.93;;;;;;;;;;759054;183;919451;-65
2022/11/24 10:28:26;;;;;;;71.70;30.37;;;;;;;;;;760247;182;914913;-65
2022/11/24 10:30:52;;;;;;;64.80;32.93;;;;;;;;;;759928;181;921721;-62
2022/11/24 10:33:18;;;;;;;74.90;32.73;;;;;;;;;;775753;180;920742;-65
2022/11/24 10:35:54;;;;;;;63.70;29.37;;;;;;;;;;765968;180;817351;-65
2022/11/24 10:38:24;;;;;;;70.83;29.40;;;;;;;;;;777504;179;800952;-65
2022/11/24 10:40:52;;;;;;;70.60;28.57;;;;;;;;;;751585;183;919130;-61
2022/11/24 10:43:17;;;;;;;65.00;30.87;;;;;;;;;;766830;180;918722;-62
2022/11/24 10:45:43;;;;;;;72.03;29.10;;;;;;;;;;762457;184;919657;-61
2022/11/24 10:48:10;;;;;;;67.25;29.87;;;;;;;;;;768462;180;919616;-62
2022/11/24 10:50:36;;;;;;;62.57;27.33;;;;;;;;;;774210;180;918409;-65
2022/11/24 10:53:03;;;;;;;66.10;28.60;;;;;;;;;;769752;180;840536;-62
2022/11/24 10:55:44;;;;;;;58.30;28.47;;;;;;;;;;755505;184;919140;-66
2022/11/24 10:58:12;;;;;;;68.40;28.70;;;;;;;;;;759728;181;896184;-66
2022/11/24 11:00:37;;;;;;;56.57;28.00;;;;;;;;;;763665;182;919140;-62
2022/11/24 11:03:09;;;;;;;62.43;26.93;;;;;;;;;;765470;182;918357;-65
2022/11/24 11:05:40;;;;;;;57.87;27.90;;;;;;;;;;767161;180;918699;-62
2022/11/24 11:08:12;;;;;;;61.03;28.40;;;;;;;;;;763747;183;920205;-65
2022/11/24 11:10:38;;;;;;;60.20;27.80;;;;;;;;;;767492;181;927775;-62
2022/11/24 11:13:10;;;;;;;52.03;25.43;;;;;;;;;;767778;181;919613;-62
2022/11/24 11:15:36;;;;;;;50.00;25.40;;;;;;;;;;775385;179;918987;-62
2022/11/24 11:18:02;;;;;;;59.73;27.63;;;;;;;;;;777290;179;919346;-62
2022/11/24 11:20:28;;;;;;;54.17;29.00;;;;;;;;;;776414;179;919261;-61
2022/11/24 11:22:54;;;;;;;58.70;28.27;;;;;;;;;;775139;179;817116;-64
2022/11/24 11:25:19;;;;;;;61.07;29.60;;;;;;;;;;779666;179;817067;-64
2022/11/24 11:27:45;;;;;;;62.60;30.40;;;;;;;;;;763246;181;919746;-61
2022/11/24 11:30:18;;;;;;;60.97;32.38;;;;;;;;;;772266;181;919008;-64
2022/11/24 11:32:49;;;;;;;63.20;29.05;;;;;;;;;;777806;179;918825;-64
2022/11/24 11:35:15;;;;;;;50.83;26.37;;;;;;;;;;777663;180;919154;-64
2022/11/24 11:37:41;;;;;;;60.20;29.40;;;;;;;;;;761210;183;903118;-64
2022/11/24 11:40:08;;;;;;;58.93;27.30;;;;;;;;;;767335;180;911364;-64
2022/11/24 11:42:36;;;;;;;63.97;31.03;;;;;;;;;;771169;180;919763;-65
2022/11/24 11:45:04;;;;;;;61.43;27.90;;;;;;;;;;765002;180;918373;-65
2022/11/24 11:47:29;;;;;;;67.53;29.43;;;;;;;;;;769399;181;918324;-65
2022/11/24 11:49:55;;;;;;;75.33;31.50;;;;;;;;;;765166;179;917589;-66
2022/11/24 11:52:27;;;;;;;60.07;28.97;;;;;;;;;;766711;179;918074;-65
2022/11/24 11:55:03;;;;;;;73.43;27.73;;;;;;;;;;764979;181;919109;-60
2022/11/24 11:57:38;;;;;;;58.93;26.13;;;;;;;;;;764593;181;918593;-65
2022/11/24 12:00:14;;;;;;;63.15;31.85;;;;;;;;;;768259;180;921244;-61
2022/11/24 12:02:59;;;;;;;64.13;31.40;;;;;;;;;;769947;180;819053;-62
2022/11/24 12:05:31;;;;;;;63.83;28.73;;;;;;;;;;767663;181;918144;-61
2022/11/24 12:07:56;;;;;;;66.90;29.07;;;;;;;;;;772784;180;821801;-65
2022/11/24 12:10:34;;;;;;;62.30;27.47;;;;;;;;;;776246;181;920596;-61
2022/11/24 12:13:21;;;;;;;64.87;30.67;;;;;;;;;;771321;180;913964;-67
2022/11/24 12:15:47;;;;;;;65.67;30.33;;;;;;;;;;759760;181;918906;-62
2022/11/24 12:18:19;;;;;;;70.37;30.10;;;;;;;;;;764886;180;819240;-62
2022/11/24 12:21:02;;;;;;;62.47;30.33;;;;;;;;;;766611;181;916881;-66
2022/11/24 12:23:43;;;;;;;65.17;31.00;;;;;;;;;;772287;180;916722;-62
2022/11/24 12:26:08;;;;;;;74.50;30.25;;;;;;;;;;769856;181;917023;-62
2022/11/24 12:28:40;;;;;;;61.90;28.23;;;;;;;;;;772375;180;936317;-61
2022/11/24 12:31:06;;;;;;;64.43;30.37;;;;;;;;;;772149;183;816609;-62
2022/11/24 12:33:49;;;;;;;61.77;30.97;;;;;;;;;;763940;179;920910;-65
2022/11/24 12:36:31;;;;;;;60.63;30.30;;;;;;;;;;752292;185;919025;-61
2022/11/24 12:39:03;;;;;;;59.90;27.40;;;;;;;;;;750002;184;918407;-65
2022/11/24 12:41:32;;;;;;;66.80;29.70;;;;;;;;;;747713;184;918735;-61
2022/11/24 12:43:58;;;;;;;58.50;31.37;;;;;;;;;;750098;185;875358;-62
2022/11/24 12:46:28;;;;;;;72.30;31.20;;;;;;;;;;755726;187;918876;-62
2022/11/24 12:49:10;;;;;;;81.90;32.70;;;;;;;;;;755996;184;919599;-62
2022/11/24 12:51:36;;;;;;;62.90;29.40;;;;;;;;;;768019;180;922065;-61
2022/11/24 12:54:02;;;;;;;60.40;29.23;;;;;;;;;;753759;181;919830;-61
2022/11/24 12:56:31;;;;;;;68.03;31.43;;;;;;;;;;757266;184;918957;-65
2022/11/24 12:58:57;;;;;;;69.80;31.50;;;;;;;;;;763285;182;922180;-66
2022/11/24 13:01:24;;;;;;;76.47;32.50;;;;;;;;;;764823;181;921099;-61
2022/11/24 13:04:07;;;;;;;59.03;29.80;;;;;;;;;;765323;180;919208;-64
2022/11/24 13:06:43;;;;;;;70.33;30.90;;;;;;;;;;771700;180;917617;-68
2022/11/24 13:09:09;;;;;;;62.77;31.50;;;;;;;;;;770405;180;816461;-66
2022/11/24 13:11:35;;;;;;;63.50;33.17;;;;;;;;;;770087;181;919417;-60
2022/11/24 13:14:01;;;;;;;69.30;32.77;;;;;;;;;;773623;180;918977;-62
2022/11/24 13:16:27;;;;;;;72.45;32.17;;;;;;;;;;760580;180;920578;-62
2022/11/24 13:18:54;;;;;;;73.80;32.87;;;;;;;;;;767295;184;817003;-62
2022/11/24 13:21:25;;;;;;;60.93;27.83;;;;;;;;;;760420;183;913618;-61
2022/11/24 13:23:57;;;;;;;70.20;31.20;;;;;;;;;;763041;181;1021377;-61
2022/11/24 13:26:25;;;;;;;71.13;31.73;;;;;;;;;;764253;182;920187;-62
2022/11/24 13:28:54;;;;;;;64.53;31.60;;;;;;;;;;769431;182;915187;-66
2022/11/24 13:31:20;;;;;;;69.17;31.50;;;;;;;;;;761684;182;918454;-65
2022/11/24 13:33:46;;;;;;;63.33;29.27;;;;;;;;;;757099;184;920972;-62
2022/11/24 13:36:27;;;;;;;70.57;31.80;;;;;;;;;;764599;181;918729;-65
2022/11/24 13:38:52;;;;;;;59.13;31.00;;;;;;;;;;774195;179;919198;-62
2022/11/24 13:41:21;;;;;;;62.83;33.00;;;;;;;;;;764103;180;817566;-61
2022/11/24 13:43:52;;;;;;;79.80;32.70;;;;;;;;;;765753;181;920060;-66
2022/11/24 13:46:18;;;;;;;56.23;29.83;;;;;;;;;;765018;180;919274;-65
2022/11/24 13:48:51;;;;;;;70.50;33.47;;;;;;;;;;774952;180;919230;-65
2022/11/24 13:51:17;;;;;;;67.57;31.23;;;;;;;;;;772149;180;918891;-61
2022/11/24 13:53:43;;;;;;;59.60;29.90;;;;;;;;;;764804;179;918786;-62
2022/11/24 13:56:26;;;;;;;71.40;31.47;;;;;;;;;;763303;181;918778;-65
2022/11/24 13:58:51;;;;;;;67.00;30.67;;;;;;;;;;756891;183;816249;-66